sensor_id;sensor_type;location;lat;lon;timestamp;temperature;humidity
68912;SHT31;55953;51.650;-0.522;2022-07-10T00:02:01;17.15;69.72
68912;SHT31;55953;51.650;-0.522;2022-07-10T00:04:30;17.22;69.54
68912;SHT31;55953;51.650;-0.522;2022-07-10T00:06:57;17.17;70.01
68912;SHT31;55953;51.650;-0.522;2022-07-10T00:09:25;17.13;69.89
68912;SHT31;55953;51.650;-0.522;2022-07-10T00:11:55;17.09;70.00
68912;SHT31;55953;51.650;-0.522;2022-07-10T00:14:23;17.02;70.22
68912;SHT31;55953;51.650;-0.522;2022-07-10T00:16:51;17.00;70.44
68912;SHT31;55953;51.650;-0.522;2022-07-10T00:19:19;17.00;70.59
68912;SHT31;55953;51.650;-0.522;2022-07-10T00:21:47;16.86;71.02
68912;SHT31;55953;51.650;-0.522;2022-07-10T00:24:14;16.82;71.10
68912;SHT31;55953;51.650;-0.522;2022-07-10T00:26:42;16.81;70.96
68912;SHT31;55953;51.650;-0.522;2022-07-10T00:29:10;16.76;71.29
68912;SHT31;55953;51.650;-0.522;2022-07-10T00:31:37;16.77;71.08
68912;SHT31;55953;51.650;-0.522;2022-07-10T00:34:05;16.76;71.18
68912;SHT31;55953;51.650;-0.522;2022-07-10T00:36:33;16.70;71.23
68912;SHT31;55953;51.650;-0.522;2022-07-10T00:39:01;16.62;71.51
68912;SHT31;55953;51.650;-0.522;2022-07-10T00:41:29;16.55;71.90
68912;SHT31;55953;51.650;-0.522;2022-07-10T00:44:00;16.46;72.58
68912;SHT31;55953;51.650;-0.522;2022-07-10T00:46:30;16.45;72.31
68912;SHT31;55953;51.650;-0.522;2022-07-10T00:48:59;16.51;72.32
68912;SHT31;55953;51.650;-0.522;2022-07-10T00:51:28;16.45;72.28
68912;SHT31;55953;51.650;-0.522;2022-07-10T00:53:58;16.39;72.31
68912;SHT31;55953;51.650;-0.522;2022-07-10T00:56:28;16.32;72.52
68912;SHT31;55953;51.650;-0.522;2022-07-10T00:58:56;16.22;73.29
68912;SHT31;55953;51.650;-0.522;2022-07-10T01:01:24;16.08;73.60
68912;SHT31;55953;51.650;-0.522;2022-07-10T01:03:52;16.07;73.26
68912;SHT31;55953;51.650;-0.522;2022-07-10T01:06:20;16.08;73.24
68912;SHT31;55953;51.650;-0.522;2022-07-10T01:08:48;16.07;73.35
68912;SHT31;55953;51.650;-0.522;2022-07-10T01:11:15;16.08;73.38
68912;SHT31;55953;51.650;-0.522;2022-07-10T01:13:44;16.03;73.80
68912;SHT31;55953;51.650;-0.522;2022-07-10T01:16:11;16.00;73.82
68912;SHT31;55953;51.650;-0.522;2022-07-10T01:18:40;16.01;73.67
68912;SHT31;55953;51.650;-0.522;2022-07-10T01:21:25;16.01;73.81
68912;SHT31;55953;51.650;-0.522;2022-07-10T01:24:03;16.01;73.86
68912;SHT31;55953;51.650;-0.522;2022-07-10T01:26:34;15.99;73.66
68912;SHT31;55953;51.650;-0.522;2022-07-10T01:29:05;15.93;73.84
68912;SHT31;55953;51.650;-0.522;2022-07-10T01:31:34;15.91;74.02
68912;SHT31;55953;51.650;-0.522;2022-07-10T01:34:02;15.89;74.34
68912;SHT31;55953;51.650;-0.522;2022-07-10T01:36:36;15.85;74.54
68912;SHT31;55953;51.650;-0.522;2022-07-10T01:39:05;15.87;74.42
68912;SHT31;55953;51.650;-0.522;2022-07-10T01:41:34;15.94;74.07
68912;SHT31;55953;51.650;-0.522;2022-07-10T01:44:01;15.90;73.86
68912;SHT31;55953;51.650;-0.522;2022-07-10T01:46:30;15.78;74.27
68912;SHT31;55953;51.650;-0.522;2022-07-10T01:48:58;15.63;75.00
68912;SHT31;55953;51.650;-0.522;2022-07-10T01:51:25;15.56;75.19
68912;SHT31;55953;51.650;-0.522;2022-07-10T01:53:53;15.53;75.21
68912;SHT31;55953;51.650;-0.522;2022-07-10T01:56:21;15.55;75.04
68912;SHT31;55953;51.650;-0.522;2022-07-10T01:58:48;15.54;74.82
68912;SHT31;55953;51.650;-0.522;2022-07-10T02:01:16;15.51;74.88
68912;SHT31;55953;51.650;-0.522;2022-07-10T02:03:44;15.45;75.13
68912;SHT31;55953;51.650;-0.522;2022-07-10T02:06:30;15.49;75.12
68912;SHT31;55953;51.650;-0.522;2022-07-10T02:08:58;15.48;75.09
68912;SHT31;55953;51.650;-0.522;2022-07-10T02:11:26;15.44;75.14
68912;SHT31;55953;51.650;-0.522;2022-07-10T02:13:54;15.39;75.51
68912;SHT31;55953;51.650;-0.522;2022-07-10T02:16:21;15.34;75.40
68912;SHT31;55953;51.650;-0.522;2022-07-10T02:18:49;15.31;75.72
68912;SHT31;55953;51.650;-0.522;2022-07-10T02:21:17;15.18;76.07
68912;SHT31;55953;51.650;-0.522;2022-07-10T02:23:45;15.11;76.45
68912;SHT31;55953;51.650;-0.522;2022-07-10T02:26:12;15.11;76.33
68912;SHT31;55953;51.650;-0.522;2022-07-10T02:28:40;15.17;75.93
68912;SHT31;55953;51.650;-0.522;2022-07-10T02:31:08;15.14;76.39
68912;SHT31;55953;51.650;-0.522;2022-07-10T02:33:36;15.03;76.72
68912;SHT31;55953;51.650;-0.522;2022-07-10T02:36:04;15.01;76.67
68912;SHT31;55953;51.650;-0.522;2022-07-10T02:38:32;15.01;76.52
68912;SHT31;55953;51.650;-0.522;2022-07-10T02:41:00;14.98;76.72
68912;SHT31;55953;51.650;-0.522;2022-07-10T02:43:28;14.98;76.60
68912;SHT31;55953;51.650;-0.522;2022-07-10T02:45:56;15.01;76.48
68912;SHT31;55953;51.650;-0.522;2022-07-10T02:48:23;14.96;76.50
68912;SHT31;55953;51.650;-0.522;2022-07-10T02:50:51;14.93;76.77
68912;SHT31;55953;51.650;-0.522;2022-07-10T02:53:19;14.94;76.54
68912;SHT31;55953;51.650;-0.522;2022-07-10T02:55:47;14.92;76.44
68912;SHT31;55953;51.650;-0.522;2022-07-10T02:58:15;14.90;76.55
68912;SHT31;55953;51.650;-0.522;2022-07-10T03:00:44;14.87;76.81
68912;SHT31;55953;51.650;-0.522;2022-07-10T03:03:13;14.94;76.52
68912;SHT31;55953;51.650;-0.522;2022-07-10T03:05:41;14.94;76.08
68912;SHT31;55953;51.650;-0.522;2022-07-10T03:08:08;14.83;76.28
68912;SHT31;55953;51.650;-0.522;2022-07-10T03:10:36;14.72;76.40
68912;SHT31;55953;51.650;-0.522;2022-07-10T03:13:04;14.66;76.62
68912;SHT31;55953;51.650;-0.522;2022-07-10T03:15:31;14.65;76.46
68912;SHT31;55953;51.650;-0.522;2022-07-10T03:17:59;14.64;76.52
68912;SHT31;55953;51.650;-0.522;2022-07-10T03:20:27;14.63;76.30
68912;SHT31;55953;51.650;-0.522;2022-07-10T03:22:55;14.54;76.41
68912;SHT31;55953;51.650;-0.522;2022-07-10T03:25:22;14.52;76.81
68912;SHT31;55953;51.650;-0.522;2022-07-10T03:27:50;14.56;76.58
68912;SHT31;55953;51.650;-0.522;2022-07-10T03:30:18;14.58;76.43
68912;SHT31;55953;51.650;-0.522;2022-07-10T03:32:47;14.52;76.30
68912;SHT31;55953;51.650;-0.522;2022-07-10T03:35:14;14.43;76.44
68912;SHT31;55953;51.650;-0.522;2022-07-10T03:37:42;14.39;76.64
68912;SHT31;55953;51.650;-0.522;2022-07-10T03:40:10;14.36;76.71
68912;SHT31;55953;51.650;-0.522;2022-07-10T03:42:38;14.35;76.58
68912;SHT31;55953;51.650;-0.522;2022-07-10T03:45:06;14.32;76.52
68912;SHT31;55953;51.650;-0.522;2022-07-10T03:47:34;14.27;76.52
68912;SHT31;55953;51.650;-0.522;2022-07-10T03:50:02;14.25;76.62
68912;SHT31;55953;51.650;-0.522;2022-07-10T03:52:31;14.21;76.59
68912;SHT31;55953;51.650;-0.522;2022-07-10T03:54:58;14.16;76.66
68912;SHT31;55953;51.650;-0.522;2022-07-10T03:57:26;14.10;76.96
68912;SHT31;55953;51.650;-0.522;2022-07-10T04:00:12;14.14;77.12
68912;SHT31;55953;51.650;-0.522;2022-07-10T04:02:41;14.22;76.73
68912;SHT31;55953;51.650;-0.522;2022-07-10T04:05:09;14.20;76.64
68912;SHT31;55953;51.650;-0.522;2022-07-10T04:07:37;14.18;76.55
68912;SHT31;55953;51.650;-0.522;2022-07-10T04:10:05;14.14;76.66
68912;SHT31;55953;51.650;-0.522;2022-07-10T04:12:33;14.10;76.88
68912;SHT31;55953;51.650;-0.522;2022-07-10T04:15:01;14.11;77.07
68912;SHT31;55953;51.650;-0.522;2022-07-10T04:17:30;14.07;77.09
68912;SHT31;55953;51.650;-0.522;2022-07-10T04:19:59;14.10;77.30
68912;SHT31;55953;51.650;-0.522;2022-07-10T04:22:27;14.17;77.35
68912;SHT31;55953;51.650;-0.522;2022-07-10T04:24:55;14.22;77.02
68912;SHT31;55953;51.650;-0.522;2022-07-10T04:27:23;14.27;77.13
68912;SHT31;55953;51.650;-0.522;2022-07-10T04:29:51;14.24;77.33
68912;SHT31;55953;51.650;-0.522;2022-07-10T04:32:19;14.12;77.57
68912;SHT31;55953;51.650;-0.522;2022-07-10T04:34:46;14.15;77.61
68912;SHT31;55953;51.650;-0.522;2022-07-10T04:37:14;14.26;77.35
68912;SHT31;55953;51.650;-0.522;2022-07-10T04:39:42;14.31;77.09
68912;SHT31;55953;51.650;-0.522;2022-07-10T04:42:10;14.32;77.04
68912;SHT31;55953;51.650;-0.522;2022-07-10T04:44:39;14.26;77.14
68912;SHT31;55953;51.650;-0.522;2022-07-10T04:47:07;14.23;77.13
68912;SHT31;55953;51.650;-0.522;2022-07-10T04:49:34;14.31;76.90
68912;SHT31;55953;51.650;-0.522;2022-07-10T04:52:02;14.37;76.68
68912;SHT31;55953;51.650;-0.522;2022-07-10T04:54:30;14.50;76.47
68912;SHT31;55953;51.650;-0.522;2022-07-10T04:56:59;14.59;76.43
68912;SHT31;55953;51.650;-0.522;2022-07-10T04:59:27;14.55;76.70
68912;SHT31;55953;51.650;-0.522;2022-07-10T05:01:55;14.46;77.37
68912;SHT31;55953;51.650;-0.522;2022-07-10T05:04:23;14.43;77.28
68912;SHT31;55953;51.650;-0.522;2022-07-10T05:06:51;14.52;76.91
68912;SHT31;55953;51.650;-0.522;2022-07-10T05:09:18;14.53;76.75
68912;SHT31;55953;51.650;-0.522;2022-07-10T05:11:47;14.57;76.62
68912;SHT31;55953;51.650;-0.522;2022-07-10T05:14:15;14.69;76.32
68912;SHT31;55953;51.650;-0.522;2022-07-10T05:16:43;14.87;75.86
68912;SHT31;55953;51.650;-0.522;2022-07-10T05:19:11;14.92;75.73
68912;SHT31;55953;51.650;-0.522;2022-07-10T05:21:39;14.96;75.78
68912;SHT31;55953;51.650;-0.522;2022-07-10T05:24:06;14.97;76.12
68912;SHT31;55953;51.650;-0.522;2022-07-10T05:26:35;14.98;76.27
68912;SHT31;55953;51.650;-0.522;2022-07-10T05:29:03;14.99;76.42
68912;SHT31;55953;51.650;-0.522;2022-07-10T05:31:31;15.08;76.05
68912;SHT31;55953;51.650;-0.522;2022-07-10T05:33:59;15.06;76.48
68912;SHT31;55953;51.650;-0.522;2022-07-10T05:36:26;15.15;76.44
68912;SHT31;55953;51.650;-0.522;2022-07-10T05:38:54;15.29;75.76
68912;SHT31;55953;51.650;-0.522;2022-07-10T05:41:22;15.36;75.56
68912;SHT31;55953;51.650;-0.522;2022-07-10T05:43:49;15.44;75.72
68912;SHT31;55953;51.650;-0.522;2022-07-10T05:46:17;15.55;75.39
68912;SHT31;55953;51.650;-0.522;2022-07-10T05:48:45;15.63;75.01
68912;SHT31;55953;51.650;-0.522;2022-07-10T05:51:13;15.79;74.88
68912;SHT31;55953;51.650;-0.522;2022-07-10T05:53:58;15.89;74.75
68912;SHT31;55953;51.650;-0.522;2022-07-10T05:56:26;15.97;74.62
68912;SHT31;55953;51.650;-0.522;2022-07-10T05:58:54;16.09;74.55
68912;SHT31;55953;51.650;-0.522;2022-07-10T06:01:23;16.30;74.05
68912;SHT31;55953;51.650;-0.522;2022-07-10T06:03:51;16.45;73.54
68912;SHT31;55953;51.650;-0.522;2022-07-10T06:06:20;16.49;73.25
68912;SHT31;55953;51.650;-0.522;2022-07-10T06:08:47;16.61;73.26
68912;SHT31;55953;51.650;-0.522;2022-07-10T06:11:16;16.70;72.84
68912;SHT31;55953;51.650;-0.522;2022-07-10T06:13:44;16.81;72.27
68912;SHT31;55953;51.650;-0.522;2022-07-10T06:16:11;16.85;71.56
68912;SHT31;55953;51.650;-0.522;2022-07-10T06:18:39;16.90;71.71
68912;SHT31;55953;51.650;-0.522;2022-07-10T06:21:08;16.94;71.49
68912;SHT31;55953;51.650;-0.522;2022-07-10T06:23:36;16.93;71.30
68912;SHT31;55953;51.650;-0.522;2022-07-10T06:26:04;16.89;71.31
68912;SHT31;55953;51.650;-0.522;2022-07-10T06:28:33;16.92;71.28
68912;SHT31;55953;51.650;-0.522;2022-07-10T06:31:02;16.97;71.07
68912;SHT31;55953;51.650;-0.522;2022-07-10T06:33:31;16.99;71.11
68912;SHT31;55953;51.650;-0.522;2022-07-10T06:35:59;17.03;71.21
68912;SHT31;55953;51.650;-0.522;2022-07-10T06:38:27;17.06;71.40
68912;SHT31;55953;51.650;-0.522;2022-07-10T06:40:55;17.14;71.43
68912;SHT31;55953;51.650;-0.522;2022-07-10T06:43:22;17.24;71.73
68912;SHT31;55953;51.650;-0.522;2022-07-10T06:45:51;17.33;71.89
68912;SHT31;55953;51.650;-0.522;2022-07-10T06:48:19;17.33;73.38
68912;SHT31;55953;51.650;-0.522;2022-07-10T06:50:47;17.35;74.01
68912;SHT31;55953;51.650;-0.522;2022-07-10T06:53:15;17.34;74.02
68912;SHT31;55953;51.650;-0.522;2022-07-10T06:55:43;17.42;74.08
68912;SHT31;55953;51.650;-0.522;2022-07-10T06:58:11;17.42;74.30
68912;SHT31;55953;51.650;-0.522;2022-07-10T07:00:38;17.44;74.11
68912;SHT31;55953;51.650;-0.522;2022-07-10T07:03:06;17.47;73.98
68912;SHT31;55953;51.650;-0.522;2022-07-10T07:05:34;17.53;73.77
68912;SHT31;55953;51.650;-0.522;2022-07-10T07:08:02;17.60;73.75
68912;SHT31;55953;51.650;-0.522;2022-07-10T07:10:30;17.64;73.68
68912;SHT31;55953;51.650;-0.522;2022-07-10T07:12:57;17.81;73.53
68912;SHT31;55953;51.650;-0.522;2022-07-10T07:15:26;17.89;73.40
68912;SHT31;55953;51.650;-0.522;2022-07-10T07:17:55;17.95;73.44
68912;SHT31;55953;51.650;-0.522;2022-07-10T07:20:35;18.09;73.01
68912;SHT31;55953;51.650;-0.522;2022-07-10T07:23:22;18.14;72.31
68912;SHT31;55953;51.650;-0.522;2022-07-10T07:25:51;18.15;72.53
68912;SHT31;55953;51.650;-0.522;2022-07-10T07:28:19;18.26;72.10
68912;SHT31;55953;51.650;-0.522;2022-07-10T07:30:48;18.31;71.92
68912;SHT31;55953;51.650;-0.522;2022-07-10T07:33:16;18.35;72.07
68912;SHT31;55953;51.650;-0.522;2022-07-10T07:35:44;18.42;71.78
68912;SHT31;55953;51.650;-0.522;2022-07-10T07:38:12;18.46;71.61
68912;SHT31;55953;51.650;-0.522;2022-07-10T07:40:40;18.49;71.68
68912;SHT31;55953;51.650;-0.522;2022-07-10T07:43:07;18.60;71.66
68912;SHT31;55953;51.650;-0.522;2022-07-10T07:45:35;18.72;71.12
68912;SHT31;55953;51.650;-0.522;2022-07-10T07:48:03;18.80;70.89
68912;SHT31;55953;51.650;-0.522;2022-07-10T07:50:32;18.91;70.88
68912;SHT31;55953;51.650;-0.522;2022-07-10T07:53:02;19.03;70.77
68912;SHT31;55953;51.650;-0.522;2022-07-10T07:55:32;19.16;70.60
68912;SHT31;55953;51.650;-0.522;2022-07-10T07:58:02;19.25;70.18
68912;SHT31;55953;51.650;-0.522;2022-07-10T08:00:30;19.42;70.06
68912;SHT31;55953;51.650;-0.522;2022-07-10T08:02:59;19.61;69.28
68912;SHT31;55953;51.650;-0.522;2022-07-10T08:05:28;19.69;69.32
68912;SHT31;55953;51.650;-0.522;2022-07-10T08:07:57;19.73;68.94
68912;SHT31;55953;51.650;-0.522;2022-07-10T08:10:31;19.82;68.70
68912;SHT31;55953;51.650;-0.522;2022-07-10T08:13:00;19.96;68.22
68912;SHT31;55953;51.650;-0.522;2022-07-10T08:15:28;20.15;67.61
68912;SHT31;55953;51.650;-0.522;2022-07-10T08:17:57;20.37;67.29
68912;SHT31;55953;51.650;-0.522;2022-07-10T08:20:26;20.48;67.34
68912;SHT31;55953;51.650;-0.522;2022-07-10T08:22:54;20.67;66.62
68912;SHT31;55953;51.650;-0.522;2022-07-10T08:25:27;20.93;66.19
68912;SHT31;55953;51.650;-0.522;2022-07-10T08:28:01;21.26;65.53
68912;SHT31;55953;51.650;-0.522;2022-07-10T08:30:30;21.75;64.71
68912;SHT31;55953;51.650;-0.522;2022-07-10T08:32:59;22.11;63.75
68912;SHT31;55953;51.650;-0.522;2022-07-10T08:35:27;22.37;63.34
68912;SHT31;55953;51.650;-0.522;2022-07-10T08:37:54;22.60;62.49
68912;SHT31;55953;51.650;-0.522;2022-07-10T08:40:22;22.85;61.67
68912;SHT31;55953;51.650;-0.522;2022-07-10T08:42:50;22.83;60.97
68912;SHT31;55953;51.650;-0.522;2022-07-10T08:45:18;22.87;61.06
68912;SHT31;55953;51.650;-0.522;2022-07-10T08:47:46;22.98;60.92
68912;SHT31;55953;51.650;-0.522;2022-07-10T08:50:17;23.09;60.82
68912;SHT31;55953;51.650;-0.522;2022-07-10T08:55:40;23.27;60.41
68912;SHT31;55953;51.650;-0.522;2022-07-10T08:58:08;23.23;60.02
68912;SHT31;55953;51.650;-0.522;2022-07-10T09:00:39;23.25;60.52
68912;SHT31;55953;51.650;-0.522;2022-07-10T09:03:07;23.20;59.16
68912;SHT31;55953;51.650;-0.522;2022-07-10T09:05:35;23.15;59.24
68912;SHT31;55953;51.650;-0.522;2022-07-10T09:08:03;23.06;59.18
68912;SHT31;55953;51.650;-0.522;2022-07-10T09:10:31;22.89;59.07
68912;SHT31;55953;51.650;-0.522;2022-07-10T09:13:00;22.81;59.24
68912;SHT31;55953;51.650;-0.522;2022-07-10T09:15:32;22.78;59.84
68912;SHT31;55953;51.650;-0.522;2022-07-10T09:20:35;22.91;60.11
68912;SHT31;55953;51.650;-0.522;2022-07-10T09:25:44;23.04;59.29
68912;SHT31;55953;51.650;-0.522;2022-07-10T09:28:18;22.95;59.16
68912;SHT31;55953;51.650;-0.522;2022-07-10T09:30:48;22.98;58.44
68912;SHT31;55953;51.650;-0.522;2022-07-10T09:33:26;22.98;58.00
68912;SHT31;55953;51.650;-0.522;2022-07-10T09:36:04;22.97;58.39
68912;SHT31;55953;51.650;-0.522;2022-07-10T09:41:13;23.11;57.62
68912;SHT31;55953;51.650;-0.522;2022-07-10T09:46:33;23.15;57.40
68912;SHT31;55953;51.650;-0.522;2022-07-10T09:49:04;23.15;57.87
68912;SHT31;55953;51.650;-0.522;2022-07-10T09:51:40;23.09;57.82
68912;SHT31;55953;51.650;-0.522;2022-07-10T09:54:15;23.10;58.11
68912;SHT31;55953;51.650;-0.522;2022-07-10T09:56:46;23.20;58.41
68912;SHT31;55953;51.650;-0.522;2022-07-10T09:59:19;23.36;58.14
68912;SHT31;55953;51.650;-0.522;2022-07-10T10:01:51;23.40;57.59
68912;SHT31;55953;51.650;-0.522;2022-07-10T10:04:22;23.41;57.51
68912;SHT31;55953;51.650;-0.522;2022-07-10T10:06:54;23.41;57.20
68912;SHT31;55953;51.650;-0.522;2022-07-10T10:12:07;23.54;57.72
68912;SHT31;55953;51.650;-0.522;2022-07-10T10:15:07;23.73;57.18
68912;SHT31;55953;51.650;-0.522;2022-07-10T10:17:38;23.89;57.36
68912;SHT31;55953;51.650;-0.522;2022-07-10T10:20:09;23.91;56.48
68912;SHT31;55953;51.650;-0.522;2022-07-10T10:22:57;23.87;55.87
68912;SHT31;55953;51.650;-0.522;2022-07-10T10:25:28;23.83;54.28
68912;SHT31;55953;51.650;-0.522;2022-07-10T10:28:04;23.90;54.89
68912;SHT31;55953;51.650;-0.522;2022-07-10T10:30:45;24.03;55.06
68912;SHT31;55953;51.650;-0.522;2022-07-10T10:36:10;24.40;54.73
68912;SHT31;55953;51.650;-0.522;2022-07-10T10:38:59;24.55;53.95
68912;SHT31;55953;51.650;-0.522;2022-07-10T10:41:38;24.73;53.80
68912;SHT31;55953;51.650;-0.522;2022-07-10T10:46:53;24.75;52.20
68912;SHT31;55953;51.650;-0.522;2022-07-10T10:52:26;24.87;52.67
68912;SHT31;55953;51.650;-0.522;2022-07-10T10:57:36;24.95;51.10
68912;SHT31;55953;51.650;-0.522;2022-07-10T11:00:11;24.95;50.42
68912;SHT31;55953;51.650;-0.522;2022-07-10T11:02:44;24.93;51.00
68912;SHT31;55953;51.650;-0.522;2022-07-10T11:10:34;25.18;50.80
68912;SHT31;55953;51.650;-0.522;2022-07-10T11:13:16;25.29;49.94
68912;SHT31;55953;51.650;-0.522;2022-07-10T11:18:19;25.46;50.14
68912;SHT31;55953;51.650;-0.522;2022-07-10T11:20:50;25.54;49.33
68912;SHT31;55953;51.650;-0.522;2022-07-10T11:29:07;25.85;47.90
68912;SHT31;55953;51.650;-0.522;2022-07-10T11:31:35;25.98;47.35
68912;SHT31;55953;51.650;-0.522;2022-07-10T11:34:12;26.01;46.25
68912;SHT31;55953;51.650;-0.522;2022-07-10T11:36:39;26.12;47.13
68912;SHT31;55953;51.650;-0.522;2022-07-10T11:39:08;26.26;46.24
68912;SHT31;55953;51.650;-0.522;2022-07-10T11:41:45;26.31;46.76
68912;SHT31;55953;51.650;-0.522;2022-07-10T11:44:14;26.48;46.85
68912;SHT31;55953;51.650;-0.522;2022-07-10T11:46:44;26.73;46.47
68912;SHT31;55953;51.650;-0.522;2022-07-10T11:49:15;26.84;44.51
68912;SHT31;55953;51.650;-0.522;2022-07-10T11:51:44;26.82;44.54
68912;SHT31;55953;51.650;-0.522;2022-07-10T11:54:13;26.96;44.43
68912;SHT31;55953;51.650;-0.522;2022-07-10T11:56:48;27.14;44.73
68912;SHT31;55953;51.650;-0.522;2022-07-10T11:59:24;27.18;44.46
68912;SHT31;55953;51.650;-0.522;2022-07-10T12:01:55;27.28;44.48
68912;SHT31;55953;51.650;-0.522;2022-07-10T12:04:24;27.42;44.46
68912;SHT31;55953;51.650;-0.522;2022-07-10T12:06:53;27.54;44.51
68912;SHT31;55953;51.650;-0.522;2022-07-10T12:09:22;27.62;44.16
68912;SHT31;55953;51.650;-0.522;2022-07-10T12:11:58;27.74;43.82
68912;SHT31;55953;51.650;-0.522;2022-07-10T12:14:27;27.85;43.59
68912;SHT31;55953;51.650;-0.522;2022-07-10T12:16:56;27.90;43.07
68912;SHT31;55953;51.650;-0.522;2022-07-10T12:19:36;27.96;42.49
68912;SHT31;55953;51.650;-0.522;2022-07-10T12:22:05;27.91;42.61
68912;SHT31;55953;51.650;-0.522;2022-07-10T12:24:34;28.00;43.09
68912;SHT31;55953;51.650;-0.522;2022-07-10T12:27:03;28.19;42.76
68912;SHT31;55953;51.650;-0.522;2022-07-10T12:29:31;28.36;42.13
68912;SHT31;55953;51.650;-0.522;2022-07-10T12:31:59;28.46;42.07
68912;SHT31;55953;51.650;-0.522;2022-07-10T12:34:47;28.52;41.01
68912;SHT31;55953;51.650;-0.522;2022-07-10T12:37:17;28.50;42.25
68912;SHT31;55953;51.650;-0.522;2022-07-10T12:39:48;28.53;42.01
68912;SHT31;55953;51.650;-0.522;2022-07-10T12:44:54;28.52;41.68
68912;SHT31;55953;51.650;-0.522;2022-07-10T12:47:44;28.65;41.47
68912;SHT31;55953;51.650;-0.522;2022-07-10T12:50:15;28.55;41.75
68912;SHT31;55953;51.650;-0.522;2022-07-10T12:52:45;28.34;41.26
68912;SHT31;55953;51.650;-0.522;2022-07-10T12:55:17;28.10;41.75
68912;SHT31;55953;51.650;-0.522;2022-07-10T13:00:26;28.57;42.60
68912;SHT31;55953;51.650;-0.522;2022-07-10T13:03:02;28.94;41.85
68912;SHT31;55953;51.650;-0.522;2022-07-10T13:05:39;29.15;41.33
68912;SHT31;55953;51.650;-0.522;2022-07-10T13:10:40;29.36;40.04
68912;SHT31;55953;51.650;-0.522;2022-07-10T13:13:09;29.49;41.00
68912;SHT31;55953;51.650;-0.522;2022-07-10T13:15:37;29.66;40.50
68912;SHT31;55953;51.650;-0.522;2022-07-10T13:18:14;29.85;39.70
68912;SHT31;55953;51.650;-0.522;2022-07-10T13:20:51;29.97;39.64
68912;SHT31;55953;51.650;-0.522;2022-07-10T13:23:27;30.06;39.61
68912;SHT31;55953;51.650;-0.522;2022-07-10T13:25:57;29.82;38.88
68912;SHT31;55953;51.650;-0.522;2022-07-10T13:28:30;29.47;39.14
68912;SHT31;55953;51.650;-0.522;2022-07-10T13:30:58;29.16;39.48
68912;SHT31;55953;51.650;-0.522;2022-07-10T13:33:26;29.00;39.47
68912;SHT31;55953;51.650;-0.522;2022-07-10T13:35:55;29.07;39.56
68912;SHT31;55953;51.650;-0.522;2022-07-10T13:38:26;29.02;39.67
68912;SHT31;55953;51.650;-0.522;2022-07-10T13:40:53;29.25;40.30
68912;SHT31;55953;51.650;-0.522;2022-07-10T13:43:21;29.54;39.65
68912;SHT31;55953;51.650;-0.522;2022-07-10T13:45:58;29.76;38.77
68912;SHT31;55953;51.650;-0.522;2022-07-10T13:48:27;30.00;39.24
68912;SHT31;55953;51.650;-0.522;2022-07-10T13:50:56;30.17;37.75
68912;SHT31;55953;51.650;-0.522;2022-07-10T13:53:24;30.05;37.50
68912;SHT31;55953;51.650;-0.522;2022-07-10T13:55:52;29.84;37.64
68912;SHT31;55953;51.650;-0.522;2022-07-10T13:58:20;29.79;38.21
68912;SHT31;55953;51.650;-0.522;2022-07-10T14:00:49;29.91;38.04
68912;SHT31;55953;51.650;-0.522;2022-07-10T14:03:17;30.02;38.04
68912;SHT31;55953;51.650;-0.522;2022-07-10T14:05:44;30.02;37.07
68912;SHT31;55953;51.650;-0.522;2022-07-10T14:08:12;29.81;35.47
68912;SHT31;55953;51.650;-0.522;2022-07-10T14:10:40;29.62;35.59
68912;SHT31;55953;51.650;-0.522;2022-07-10T14:13:08;29.45;36.57
68912;SHT31;55953;51.650;-0.522;2022-07-10T14:15:38;29.44;35.55
68912;SHT31;55953;51.650;-0.522;2022-07-10T14:18:08;29.40;36.40
68912;SHT31;55953;51.650;-0.522;2022-07-10T14:20:36;29.53;36.01
68912;SHT31;55953;51.650;-0.522;2022-07-10T14:23:23;29.70;34.58
68912;SHT31;55953;51.650;-0.522;2022-07-10T14:25:51;29.73;34.14
68912;SHT31;55953;51.650;-0.522;2022-07-10T14:28:20;29.67;34.92
68912;SHT31;55953;51.650;-0.522;2022-07-10T14:30:48;29.52;35.66
68912;SHT31;55953;51.650;-0.522;2022-07-10T14:33:18;29.20;35.05
68912;SHT31;55953;51.650;-0.522;2022-07-10T14:35:45;28.84;35.11
68912;SHT31;55953;51.650;-0.522;2022-07-10T14:38:13;28.70;36.03
68912;SHT31;55953;51.650;-0.522;2022-07-10T14:40:41;28.76;35.99
68912;SHT31;55953;51.650;-0.522;2022-07-10T14:43:08;28.95;35.85
68912;SHT31;55953;51.650;-0.522;2022-07-10T14:45:36;29.09;35.61
68912;SHT31;55953;51.650;-0.522;2022-07-10T14:48:24;29.23;36.00
68912;SHT31;55953;51.650;-0.522;2022-07-10T14:50:53;29.23;35.97
68912;SHT31;55953;51.650;-0.522;2022-07-10T14:53:20;29.19;35.78
68912;SHT31;55953;51.650;-0.522;2022-07-10T14:55:48;29.23;36.78
68912;SHT31;55953;51.650;-0.522;2022-07-10T14:58:16;29.39;36.19
68912;SHT31;55953;51.650;-0.522;2022-07-10T15:00:44;29.51;34.74
68912;SHT31;55953;51.650;-0.522;2022-07-10T15:03:11;29.61;34.41
68912;SHT31;55953;51.650;-0.522;2022-07-10T15:05:39;29.63;34.71
68912;SHT31;55953;51.650;-0.522;2022-07-10T15:08:07;29.58;35.13
68912;SHT31;55953;51.650;-0.522;2022-07-10T15:10:35;29.42;34.31
68912;SHT31;55953;51.650;-0.522;2022-07-10T15:13:03;29.19;34.79
68912;SHT31;55953;51.650;-0.522;2022-07-10T15:15:32;29.02;34.92
68912;SHT31;55953;51.650;-0.522;2022-07-10T15:18:01;28.92;35.38
68912;SHT31;55953;51.650;-0.522;2022-07-10T15:20:29;28.89;35.16
68912;SHT31;55953;51.650;-0.522;2022-07-10T15:22:57;28.83;35.22
68912;SHT31;55953;51.650;-0.522;2022-07-10T15:25:25;28.80;34.99
68912;SHT31;55953;51.650;-0.522;2022-07-10T15:27:54;28.86;35.58
68912;SHT31;55953;51.650;-0.522;2022-07-10T15:30:22;28.78;35.70
68912;SHT31;55953;51.650;-0.522;2022-07-10T15:32:50;28.66;35.66
68912;SHT31;55953;51.650;-0.522;2022-07-10T15:35:21;28.68;35.45
68912;SHT31;55953;51.650;-0.522;2022-07-10T15:37:51;28.79;34.63
68912;SHT31;55953;51.650;-0.522;2022-07-10T15:40:26;28.95;34.36
68912;SHT31;55953;51.650;-0.522;2022-07-10T15:42:58;29.09;34.36
68912;SHT31;55953;51.650;-0.522;2022-07-10T15:45:26;29.13;34.48
68912;SHT31;55953;51.650;-0.522;2022-07-10T15:47:54;29.22;34.69
68912;SHT31;55953;51.650;-0.522;2022-07-10T15:50:22;29.28;34.39
68912;SHT31;55953;51.650;-0.522;2022-07-10T15:52:50;29.36;33.79
68912;SHT31;55953;51.650;-0.522;2022-07-10T15:55:18;29.49;33.72
68912;SHT31;55953;51.650;-0.522;2022-07-10T15:57:46;29.66;34.02
68912;SHT31;55953;51.650;-0.522;2022-07-10T16:00:13;29.78;33.60
68912;SHT31;55953;51.650;-0.522;2022-07-10T16:02:41;29.77;33.13
68912;SHT31;55953;51.650;-0.522;2022-07-10T16:05:09;29.81;33.59
68912;SHT31;55953;51.650;-0.522;2022-07-10T16:07:37;29.87;33.30
68912;SHT31;55953;51.650;-0.522;2022-07-10T16:10:05;29.91;33.10
68912;SHT31;55953;51.650;-0.522;2022-07-10T16:12:33;29.95;32.38
68912;SHT31;55953;51.650;-0.522;2022-07-10T16:15:00;29.78;32.13
68912;SHT31;55953;51.650;-0.522;2022-07-10T16:17:28;29.63;32.31
68912;SHT31;55953;51.650;-0.522;2022-07-10T16:19:56;29.54;32.38